메인 페이지
METAR-TAF:

METAR-TAF

공항 :

하이데라바드, 인도

위도: 17-27N, 경도: 078-28E, 고도: 530m

현재 날씨관측

예보는 4 시간 3분 전, 17:00시(UTC)에 발표되었습니다.
남남서3kt
온도 33°C
습도 39%
기압 1012 hPa
시정: 6000m
고도 2000ft 상공 구름 보통

METAR: VOHY 251700Z 20003KT 6000 SCT020 33/17 Q1012 NOSIG

시각: 02:33 (21:03 UTC)

예보

예보는 10 시간 3분 전, 11:00시(UTC)에 발표되었습니다.
예보 대상 시간: 25일 12시부터 25일 21시까지 (UTC)
10kt
시정: 6000m
고도 1500ft 상공 구름 조금
고도 2500ft 상공 구름 보통
일시적
25일 12시부터 25일 16시까지 (UTC)
고도 3000ft 상공 구름 조금, 적란운.
고도 10000ft 상공 구름 많음
전환 중
25일 17시부터 25일 19시까지 (UTC)
남동7kt
시정: 6000m
고도 1500ft 상공 구름 보통

TAF: VOHY 251100Z 2512/2521 18010KT 6000 FEW015 SCT025 TEMPO 2512/2516 FEW030CB BKN100 BECMG 2517/2519 14007KT 6000 SCT015

4,000개 이상의 공항 관측 자료 및 예보 (METAR 및 TAF 보고).

지도상에서 검색 가능한 기상관측소가 노란 점과 빨간 점으로 표시되어 있습니다.

기상관측소 명을 보려면 표시 위로 마우스를 이동하세요.

날씨 관측과 예보를 보려면 클릭하세요.

지도 변경 : 확대하려면 엑스 표시가 있는 녹색 버튼, 축소하려면 빼기 표시가 있는 녹색 버튼, 다음 페이지의 지도를 보려면 녹색 화살표를 클릭하세요.


METAR-TAF: